Map

Track Data

SID SEASON NUMBER BASIN SUBBASIN NAME ISO_TIME NATURE LAT LON WMO_WIND WMO_PRES WMO_AGENCY TRACK_TYPE DIST2LAND LANDFALL IFLAG USA_AGENCY USA_ATCF_ID USA_LAT USA_LON USA_RECORD USA_STATUS USA_WIND USA_PRES USA_SSHS USA_R34_NE USA_R34_SE USA_R34_SW USA_R34_NW USA_R50_NE USA_R50_SE USA_R50_SW USA_R50_NW USA_R64_NE USA_R64_SE USA_R64_SW USA_R64_NW USA_POCI USA_ROCI USA_RMW USA_EYE TOKYO_LAT TOKYO_LON TOKYO_GRADE TOKYO_WIND TOKYO_PRES TOKYO_R50_DIR TOKYO_R50_LONG TOKYO_R50_SHORT TOKYO_R30_DIR TOKYO_R30_LONG TOKYO_R30_SHORT TOKYO_LAND CMA_LAT CMA_LON CMA_CAT CMA_WIND CMA_PRES HKO_LAT HKO_LON HKO_CAT HKO_WIND HKO_PRES NEWDELHI_LAT NEWDELHI_LON NEWDELHI_GRADE NEWDELHI_WIND NEWDELHI_PRES NEWDELHI_CI NEWDELHI_DP NEWDELHI_POCI REUNION_LAT REUNION_LON REUNION_TYPE REUNION_WIND REUNION_PRES REUNION_TNUM REUNION_CI REUNION_RMW REUNION_R34_NE REUNION_R34_SE REUNION_R34_SW REUNION_R34_NW REUNION_R50_NE REUNION_R50_SE REUNION_R50_SW REUNION_R50_NW REUNION_R64_NE REUNION_R64_SE REUNION_R64_SW REUNION_R64_NW BOM_LAT BOM_LON BOM_TYPE BOM_WIND BOM_PRES BOM_TNUM BOM_CI BOM_RMW BOM_R34_NE BOM_R34_SE BOM_R34_SW BOM_R34_NW BOM_R50_NE BOM_R50_SE BOM_R50_SW BOM_R50_NW BOM_R64_NE BOM_R64_SE BOM_R64_SW BOM_R64_NW BOM_ROCI BOM_POCI BOM_EYE BOM_POS_METHOD BOM_PRES_METHOD NADI_LAT NADI_LON NADI_CAT NADI_WIND NADI_PRES WELLINGTON_LAT WELLINGTON_LON WELLINGTON_WIND WELLINGTON_PRES DS824_LAT DS824_LON DS824_STAGE DS824_WIND DS824_PRES TD9636_LAT TD9636_LON TD9636_STAGE TD9636_WIND TD9636_PRES TD9635_LAT TD9635_LON TD9635_WIND TD9635_PRES TD9635_ROCI NEUMANN_LAT NEUMANN_LON NEUMANN_CLASS NEUMANN_WIND NEUMANN_PRES MLC_LAT MLC_LON MLC_CLASS MLC_WIND MLC_PRES USA_GUST BOM_GUST BOM_GUST_PER REUNION_GUST REUNION_GUST_PER USA_SEAHGT USA_SEARAD_NE USA_SEARAD_SE USA_SEARAD_SW USA_SEARAD_NW STORM_SPEED STORM_DIR
2018202N18116 2018 44 WP MM NOT_NAMED 2018-07-20 12:00:00 TS 18.0000 116.400 main 408 338 O_____________ jtwc_wp WP132018 18.0000 116.400 TD 25 1003 -1 1005 190 105 15 99
2018202N18116 2018 44 WP MM NOT_NAMED 2018-07-20 15:00:00 TS 17.8810 117.173 main 329 286 P_____________ WP132018 17.8810 117.173 TD 27 1001 -1 1003 185 72 12 99
2018202N18116 2018 44 WP MM NOT_NAMED 2018-07-20 18:00:00 TS 17.8000 117.675 main 276 234 O_O___________ jtwc_wp WP132018 17.8000 117.800 TD 30 1000 -1 1002 180 40 17.8000 117.300 1 25 1000 9 92
2018202N18116 2018 44 WP MM NOT_NAMED 2018-07-20 21:00:00 TS 17.8506 118.147 main 235 185 P_P___________ WP132018 17.7968 118.208 TD 32 998 -1 1002 180 40 17.9582 118.027 1 25 1000 9 79
2018202N18116 2018 44 WP MM NOT_NAMED 2018-07-21 00:00:00 TS 17.9857 118.643 main 185 134 O_O___________ jtwc_wp WP132018 17.9000 118.600 TS 35 996 0 90 120 90 50 1002 180 40 18.1000 118.700 1 25 1000 11 73
2018202N18116 2018 44 WP MM NOT_NAMED 2018-07-21 03:00:00 TS 18.1800 119.251 main 125 81 P_PO__________ WP132018 18.1278 119.235 TS 35 996 0 100 120 95 70 1002 180 40 18.2272 119.280 1 27 999 18.2000 119.200 TD 25 998 12 69
2018202N18116 2018 44 WP MM NOT_NAMED 2018-07-21 06:00:00 TS 18.4200 119.820 main 81 38 O_OO__________ jtwc_wp WP132018 18.4000 119.900 TS 35 996 0 110 120 100 90 1002 180 40 18.4000 119.800 1 29 998 18.5000 119.700 TD 25 998 11 64
2018202N18116 2018 44 WP MM NOT_NAMED 2018-07-21 09:00:00 TS 18.6689 120.323 main 46 30 P_PO__________ WP132018 18.5697 120.423 TS 35 995 0 110 110 100 90 1001 175 40 18.6699 120.315 1 29 998 18.8000 120.200 TD 25 998 11 61
2018202N18116 2018 44 WP MM NOT_NAMED 2018-07-21 12:00:00 TS 18.9333 120.800 main 33 33 O_OO__________ jtwc_wp WP132018 18.8000 120.900 TS 35 995 0 110 100 100 90 1001 170 40 19.0000 120.800 1 29 998 19.0000 120.700 TD 25 998 11 61
2018202N18116 2018 44 WP MM NOT_NAMED 2018-07-21 15:00:00 TS 19.2106 121.338 main 78 78 P_PO__________ WP132018 19.2196 121.370 TS 32 996 -1 1001 155 40 19.3122 121.243 1 29 998 19.1000 121.400 TD 25 998 13 50
2018202N18116 2018 44 WP MM NOT_NAMED 2018-07-21 18:00:00 TS 19.7667 121.867 main 154 154 O_OO__________ jtwc_wp WP132018 19.7000 121.900 TD 30 998 -1 1001 140 40 19.7000 121.700 1 29 998 19.9000 122.000 TD 30 996 40 14 43
2018202N18116 2018 44 WP MM NOT_NAMED 2018-07-21 21:00:00 TS 20.2252 122.355 main 201 201 P_PO__________ WP132018 20.0780 122.615 TD 27 1000 -1 1002 140 40 20.1976 122.250 1 29 998 20.4000 122.200 TD 30 996 14 45
2018202N18116 2018 44 WP MM NOT_NAMED 2018-07-22 00:00:00 MX 20.7667 122.933 main 240 240 O_OO__________ jtwc_wp WP132018 20.5000 123.300 LO 25 1002 -3 1003 140 40 20.8000 122.800 1 29 998 21.0000 122.700 TD 30 996 16 42
2018202N18116 2018 44 WP MM NOT_NAMED 2018-07-22 03:00:00 MX 21.3725 123.479 main 274 266 P_PO__________ WP132018 21.0473 123.805 LO 25 1002 -3 1003 140 40 21.4701 123.332 1 29 998 21.6000 123.300 TD 30 996 15 32
2018202N18116 2018 44 WP MM NOT_NAMED 2018-07-22 06:00:00 MX 22.0333 123.767 main 275 258 O_OO__________ jtwc_wp WP132018 21.7000 124.100 LO 25 1002 -3 1004 140 40 22.2000 123.700 1 29 998 22.2000 123.500 TD 30 996 14 16
2018202N18116 2018 44 WP MM NOT_NAMED 2018-07-22 09:00:00 MX 22.6924 123.881 main 259 237 P_PO__________ WP132018 22.4274 124.161 LO 25 1002 -3 1004 130 40 22.9498 123.783 1 29 998 22.7000 123.700 TD 30 996 14 5
2018202N18116 2018 44 WP MM NOT_NAMED 2018-07-22 12:00:00 MX 23.4667 123.900 main 231 197 O_OO__________ jtwc_wp WP132018 23.2000 124.100 LO 25 1003 -3 1005 120 40 23.7000 123.700 1 29 998 23.5000 123.900 TD 30 996 15 356
2018202N18116 2018 44 WP MM NOT_NAMED 2018-07-22 15:00:00 MX 24.1550 123.774 main 195 172 P_PO__________ WP132018 23.9575 124.122 LO 25 1003 -3 1005 125 40 24.4075 123.600 1 29 998 24.1000 123.600 TD 30 996 13 353
2018202N18116 2018 44 WP MM NOT_NAMED 2018-07-22 18:00:00 MX 24.7909 123.718 main 172 171 O_OO__________ jtwc_wp WP132018 24.7000 124.100 LO 25 1003 -3 1005 130 40 25.1000 123.500 1 29 998 24.5000 123.500 TD 30 996 14 356
2018202N18116 2018 44 WP MM NOT_NAMED 2018-07-22 21:00:00 MX 25.5070 123.680 main 179 179 P_PO__________ WP132018 25.3476 123.965 LO 25 1003 -3 1005 130 40 25.7700 123.485 1 29 998 25.3000 123.500 TD 30 996 15 357
2018202N18116 2018 44 WP MM NOT_NAMED 2018-07-23 00:00:00 MX 26.2667 123.622 main 216 216 O_OO__________ jtwc_wp WP132018 26.1000 123.800 LO 25 1003 -3 1005 130 40 26.5000 123.500 1 29 998 26.0000 123.400 TD 25 998 18 359
2018202N18116 2018 44 WP MM NOT_NAMED 2018-07-23 03:00:00 MX 27.2849 123.629 main 226 191 P_P___________ WP132018 27.1774 123.714 LO 22 1004 -3 1006 130 40 27.3924 123.544 1 27 999 20 358
2018202N18116 2018 44 WP MM NOT_NAMED 2018-07-23 06:00:00 MX 28.3000 123.543 main 177 126 O_O___________ jtwc_wp WP132018 28.3000 123.600 LO 20 1006 -3 1008 130 40 28.3000 123.500 1 25 1000 19 351
2018202N18116 2018 44 WP MM NOT_NAMED 2018-07-23 09:00:00 MX 29.1218 123.287 main 126 105 P_P___________ WP132018 29.2201 123.384 LO 20 1006 -3 1008 122 40 29.0726 123.238 1 25 1000 16 341
2018202N18116 2018 44 WP MM NOT_NAMED 2018-07-23 12:00:00 MX 29.8400 122.940 main 96 80 O_O___________ jtwc_wp WP132018 30.0000 123.100 LO 20 1007 -3 1008 115 40 29.8000 122.900 1 25 1000 15 338
2018202N18116 2018 44 WP MM NOT_NAMED 2018-07-23 15:00:00 TS 30.5275 122.627 main 80 52 __P___________ WP132018 LO -3 30.5275 122.627 1 25 1000 15 342
2018202N18116 2018 44 WP MM NOT_NAMED 2018-07-23 18:00:00 TS 31.3000 122.400 main 61 37 __O___________ 31.3000 122.400 1 25 1000 17 348
2018202N18116 2018 44 WP MM NOT_NAMED 2018-07-23 21:00:00 TS 32.1700 122.233 main 52 52 __P___________ 32.1700 122.233 1 25 1001 18 352
2018202N18116 2018 44 WP MM NOT_NAMED 2018-07-24 00:00:00 TS 33.1000 122.100 main 101 __O___________ 33.1000 122.100 1 25 1002 19 353

Digital Typhoon Data and Search

About IBTrACS Database

This database is a web-friendly format of International Best Track Archive for Climate Stewardship (IBTrACS), a global best track data archive curated by NOAA dating back to 1842.

Updated: 2021-12-01